Lake Park, North Carolina
Current Conditions -  °F | °C
As of 8:53 AM on Friday 28 Nov 2014 (Local Time) from KEQY Reporting Station
Clear Clear  
Wind Chill: 28°   Ceiling: Unl
Heat Index: 35°   Visibility: 10mi
Dew Point: 22°   Wind: 9mph
Humidity: 59%   Direction: 10°N
Pressure: 30.37"   Gusts: NA
Location:  35.0963°N, 80.6145°W
Report Text: KEQY 281353Z AUTO 01008KT 10SM CLR 02/M06 A3037 RMK AO2 SLP305 T00171056
Loading
Personal Weather Stations






























Interactive Weather Map New forecast layout! Learn more

10-Day Weather Forecast

Advertisements
Track Severe Weather on mobile